createdAt,value
2022-11-17T00:00:41.201Z,4.5
2022-11-17T00:01:42.240Z,3.200000048
2022-11-17T00:02:42.797Z,5.300000191
2022-11-17T00:03:43.227Z,3.299999952
2022-11-17T00:04:44.156Z,5.599999905
2022-11-17T00:06:14.775Z,7.199999809
2022-11-17T00:07:15.408Z,6.800000191
2022-11-17T00:08:15.697Z,8.899999619
2022-11-17T00:09:16.228Z,7.099999905
2022-11-17T00:10:16.766Z,7.400000095
2022-11-17T00:11:18.236Z,5.699999809
2022-11-17T00:12:22.540Z,5
2022-11-17T00:13:19.132Z,9.800000191
2022-11-17T00:14:19.655Z,6.300000191
2022-11-17T00:15:20.113Z,7.5
2022-11-17T00:16:20.588Z,4.099999905
2022-11-17T00:17:21.070Z,5.199999809
2022-11-17T00:18:21.535Z,7.599999905
2022-11-17T00:19:22.038Z,5.5
2022-11-17T00:20:23.231Z,5.400000095
2022-11-17T00:21:23.978Z,4.900000095
2022-11-17T00:22:24.762Z,3.799999952
2022-11-17T00:23:25.200Z,5
2022-11-17T00:24:25.622Z,5.300000191
2022-11-17T00:25:27.068Z,4.099999905
2022-11-17T00:26:27.533Z,6.099999905
2022-11-17T00:27:28.045Z,5.199999809
2022-11-17T00:28:28.472Z,4.400000095
2022-11-17T00:29:28.906Z,6.900000095
2022-11-17T00:30:30.312Z,4.199999809
2022-11-17T00:31:31.714Z,3
2022-11-17T00:32:32.201Z,3.200000048
2022-11-17T00:33:32.951Z,3.200000048
2022-11-17T00:34:33.053Z,4.099999905
2022-11-17T00:35:33.528Z,3.299999952
2022-11-17T00:36:34.046Z,2.799999952
2022-11-17T00:37:34.665Z,3.200000048
2022-11-17T00:38:35.203Z,3.400000095
2022-11-17T00:39:35.666Z,3
2022-11-17T00:40:36.125Z,2.700000048
2022-11-17T00:41:37.201Z,3.799999952
2022-11-17T00:42:37.751Z,3
2022-11-17T00:43:38.298Z,3.5
2022-11-17T00:44:38.808Z,2.900000095
2022-11-17T00:45:40.193Z,3.700000048
2022-11-17T00:46:40.610Z,4.199999809
2022-11-17T00:47:41.160Z,3.700000048
2022-11-17T00:48:41.590Z,3.700000048
2022-11-17T00:49:42.033Z,3.700000048
2022-11-17T00:50:42.487Z,6.599999905
2022-11-17T00:52:13.926Z,5.199999809
2022-11-17T00:53:14.392Z,4
2022-11-17T00:54:14.866Z,3.5
2022-11-17T00:55:15.384Z,3
2022-11-17T00:56:15.745Z,3
2022-11-17T00:57:16.170Z,3.900000095
2022-11-17T00:58:17.205Z,4.099999905
2022-11-17T00:59:17.684Z,2.799999952
2022-11-17T01:00:18.119Z,3
2022-11-17T01:01:19.530Z,3.299999952
2022-11-17T01:02:19.952Z,3.900000095
2022-11-17T01:03:20.506Z,3
2022-11-17T01:04:20.799Z,3.700000048
2022-11-17T01:05:22.569Z,3.200000048
2022-11-17T01:06:23.040Z,4.699999809
2022-11-17T01:07:23.529Z,2.799999952
2022-11-17T01:08:24.020Z,2.599999905
2022-11-17T01:09:24.364Z,4.300000191
2022-11-17T01:10:24.824Z,2.700000048
2022-11-17T01:11:25.991Z,3.099999905
2022-11-17T01:12:26.469Z,3.599999905
2022-11-17T01:13:27.051Z,2.299999952
2022-11-17T01:14:27.348Z,3.099999905
2022-11-17T01:15:27.745Z,7.199999809
2022-11-17T01:16:28.252Z,3.099999905
2022-11-17T01:17:28.684Z,2.5
2022-11-17T01:18:29.249Z,2.400000095
2022-11-17T01:19:29.542Z,3.200000048
2022-11-17T01:20:29.952Z,3.299999952
2022-11-17T01:21:31.014Z,3.299999952
2022-11-17T01:22:31.517Z,2.5
2022-11-17T01:23:32.086Z,2.5
2022-11-17T01:24:32.398Z,3.200000048
2022-11-17T01:25:32.890Z,2.299999952
2022-11-17T01:26:33.376Z,3.400000095
2022-11-17T01:27:34.468Z,2.5
2022-11-17T01:28:34.925Z,4.800000191
2022-11-17T01:29:35.323Z,3
2022-11-17T01:30:35.730Z,3.200000048
2022-11-17T01:31:36.669Z,2.200000048
2022-11-17T01:32:37.775Z,2.400000095
2022-11-17T01:33:38.335Z,1.899999976
2022-11-17T01:34:38.708Z,2.5
2022-11-17T01:35:39.130Z,3.400000095
2022-11-17T01:36:40.185Z,3.400000095
2022-11-17T01:37:40.627Z,2.900000095
2022-11-17T01:38:41.080Z,2.599999905
2022-11-17T01:39:41.529Z,2.799999952
2022-11-17T01:40:41.979Z,2.599999905
2022-11-17T01:42:13.532Z,2.400000095
2022-11-17T01:43:13.997Z,3.200000048
2022-11-17T01:44:14.426Z,2.700000048
2022-11-17T01:45:14.879Z,5.699999809
2022-11-17T01:46:15.332Z,3.700000048
2022-11-17T01:47:15.727Z,3.599999905
2022-11-17T01:48:16.793Z,2.099999905
2022-11-17T01:49:17.184Z,3
2022-11-17T01:50:17.632Z,2.799999952
2022-11-17T01:51:18.980Z,2.299999952
2022-11-17T01:52:19.394Z,2.700000048
2022-11-17T01:53:19.874Z,4
2022-11-17T01:54:20.254Z,2.5
2022-11-17T01:55:20.747Z,2.799999952
2022-11-17T01:56:21.230Z,2.400000095
2022-11-17T01:57:21.673Z,2.400000095
2022-11-17T01:58:22.134Z,2.5
2022-11-17T01:59:23.165Z,2
2022-11-17T02:00:23.613Z,2.200000048
2022-11-17T02:01:25.042Z,2.799999952
2022-11-17T02:02:25.488Z,2.700000048
2022-11-17T02:03:25.963Z,3.200000048
2022-11-17T02:04:26.349Z,4.900000095
2022-11-17T02:05:26.761Z,3.5
2022-11-17T02:06:27.233Z,4
2022-11-17T02:07:27.758Z,3.200000048
2022-11-17T02:08:28.780Z,3.599999905
2022-11-17T02:09:29.170Z,3.200000048
2022-11-17T02:10:29.599Z,3.099999905
2022-11-17T02:11:30.985Z,3.599999905
2022-11-17T02:12:31.447Z,2.5
2022-11-17T02:13:32.222Z,3.700000048
2022-11-17T02:14:32.386Z,3.200000048
2022-11-17T02:15:32.852Z,3.099999905
2022-11-17T02:16:33.262Z,2.5
2022-11-17T02:17:33.672Z,3.400000095
2022-11-17T02:18:34.175Z,4.900000095
2022-11-17T02:19:34.589Z,3.700000048
2022-11-17T02:20:35.068Z,2.799999952
2022-11-17T02:21:36.478Z,3.099999905
2022-11-17T02:22:36.882Z,3.200000048
2022-11-17T02:23:37.740Z,3.200000048
2022-11-17T02:24:37.780Z,3.400000095
2022-11-17T02:25:38.251Z,3.299999952
2022-11-17T02:26:38.669Z,2.900000095
2022-11-17T02:27:39.089Z,3.599999905
2022-11-17T02:28:40.467Z,2.099999905
2022-11-17T02:29:40.939Z,2.599999905
2022-11-17T02:30:41.399Z,3.599999905
2022-11-17T02:31:42.983Z,3.400000095
2022-11-17T02:33:13.664Z,3.400000095
2022-11-17T02:34:14.018Z,4.5
2022-11-17T02:35:14.558Z,3.700000048
2022-11-17T02:36:15.018Z,2.599999905
2022-11-17T02:37:15.452Z,3
2022-11-17T02:38:15.909Z,2.5
2022-11-17T02:39:16.281Z,2.599999905
2022-11-17T02:40:17.475Z,2.599999905
2022-11-17T02:41:17.957Z,3.599999905
2022-11-17T02:42:19.215Z,3.900000095
2022-11-17T02:43:19.653Z,3.200000048
2022-11-17T02:44:20.072Z,4.400000095
2022-11-17T02:45:20.509Z,5.400000095
2022-11-17T02:46:20.912Z,2.599999905
2022-11-17T02:47:21.366Z,3.900000095
2022-11-17T02:48:21.833Z,3.900000095
2022-11-17T02:49:22.241Z,3
2022-11-17T02:50:27.905Z,2.700000048
2022-11-17T02:51:23.139Z,4.300000191
2022-11-17T02:52:24.219Z,3.200000048
2022-11-17T02:53:24.687Z,3.099999905
2022-11-17T02:54:25.125Z,4.5
2022-11-17T02:55:25.542Z,2.799999952
2022-11-17T02:56:25.948Z,2.799999952
2022-11-17T02:57:26.349Z,2.599999905
2022-11-17T02:58:26.883Z,2.700000048
2022-11-17T02:59:28.248Z,2.599999905
2022-11-17T03:00:28.682Z,3.299999952
2022-11-17T03:01:29.109Z,4.599999905
2022-11-17T03:02:30.191Z,4.300000191
2022-11-17T03:03:30.661Z,2.299999952
2022-11-17T03:04:31.111Z,2.299999952
2022-11-17T03:05:31.585Z,2.5
2022-11-17T03:06:32.057Z,3.099999905
2022-11-17T03:07:32.543Z,4.5
2022-11-17T03:08:33.690Z,2.700000048
2022-11-17T03:09:34.153Z,3.200000048
2022-11-17T03:10:34.584Z,4.699999809
2022-11-17T03:11:35.007Z,2.5
2022-11-17T03:12:36.187Z,1.899999976
2022-11-17T03:13:36.903Z,2.5
2022-11-17T03:14:37.006Z,3.200000048
2022-11-17T03:15:37.466Z,2.599999905
2022-11-17T03:16:37.883Z,2.799999952
2022-11-17T03:17:38.313Z,3
2022-11-17T03:18:38.784Z,4.400000095
2022-11-17T03:19:39.157Z,2.799999952
2022-11-17T03:20:39.567Z,2.599999905
2022-11-17T03:21:40.072Z,2.700000048
2022-11-17T03:22:41.652Z,4.300000191
2022-11-17T03:24:12.334Z,3.099999905
2022-11-17T03:25:12.730Z,2.900000095
2022-11-17T03:26:13.189Z,3.700000048
2022-11-17T03:27:13.694Z,2.900000095
2022-11-17T03:28:15.017Z,3.099999905
2022-11-17T03:29:15.502Z,2.700000048
2022-11-17T03:30:15.885Z,3.400000095
2022-11-17T03:31:16.293Z,4.099999905
2022-11-17T03:32:16.787Z,3.5
2022-11-17T03:33:17.211Z,3
2022-11-17T03:34:18.245Z,3.099999905
2022-11-17T03:35:18.641Z,3.799999952
2022-11-17T03:36:19.051Z,4.699999809
2022-11-17T03:37:19.460Z,3.599999905
2022-11-17T03:38:20.494Z,2.700000048
2022-11-17T03:39:20.973Z,2.900000095
2022-11-17T03:40:21.380Z,3
2022-11-17T03:41:21.808Z,2.900000095
2022-11-17T03:42:22.977Z,3
2022-11-17T03:43:23.433Z,3.099999905
2022-11-17T03:44:23.891Z,2.799999952
2022-11-17T03:45:24.322Z,4.5
2022-11-17T03:46:24.808Z,3.599999905
2022-11-17T03:47:25.224Z,3.700000048
2022-11-17T03:48:25.642Z,3.200000048
2022-11-17T03:49:26.173Z,3.400000095
2022-11-17T03:50:26.586Z,3.700000048
2022-11-17T03:51:27.053Z,3.299999952
2022-11-17T03:52:28.209Z,3.200000048
2022-11-17T03:53:29.187Z,4
2022-11-17T03:54:29.590Z,2.799999952
2022-11-17T03:55:30.082Z,2.5
2022-11-17T03:56:30.525Z,3.299999952
2022-11-17T03:57:31.000Z,3.400000095
2022-11-17T03:58:31.423Z,3.200000048
2022-11-17T03:59:32.471Z,2.799999952
2022-11-17T04:00:32.873Z,4.800000191
2022-11-17T04:01:33.338Z,3.299999952
2022-11-17T04:02:34.676Z,3.299999952
2022-11-17T04:03:35.465Z,4.300000191
2022-11-17T04:04:35.502Z,2.599999905
2022-11-17T04:05:35.908Z,3
2022-11-17T04:06:36.319Z,2.299999952
2022-11-17T04:07:36.993Z,3.900000095
2022-11-17T04:08:38.212Z,3.099999905
2022-11-17T04:09:38.644Z,3
2022-11-17T04:10:39.044Z,2.799999952
2022-11-17T04:11:39.454Z,4.900000095
2022-11-17T04:13:11.429Z,3.700000048
2022-11-17T04:14:11.833Z,3.5
2022-11-17T04:15:12.269Z,2.900000095
2022-11-17T04:16:12.661Z,3
2022-11-17T04:17:13.078Z,4.099999905
2022-11-17T04:18:13.466Z,2.599999905
2022-11-17T04:19:14.471Z,3.799999952
2022-11-17T04:20:14.889Z,4.699999809
2022-11-17T04:21:15.285Z,3.900000095
2022-11-17T04:22:16.494Z,3.400000095
2022-11-17T04:23:16.883Z,3.900000095
2022-11-17T04:24:17.346Z,4.300000191
2022-11-17T04:25:17.794Z,4.099999905
2022-11-17T04:26:18.218Z,3.299999952
2022-11-17T04:27:18.643Z,2.900000095
2022-11-17T04:28:19.056Z,4.099999905
2022-11-17T04:29:19.487Z,3.700000048
2022-11-17T04:30:19.896Z,3.599999905
2022-11-17T04:31:20.298Z,3.900000095
2022-11-17T04:32:21.523Z,5.099999905
2022-11-17T04:33:21.887Z,2.299999952
2022-11-17T04:34:22.573Z,4.099999905
2022-11-17T04:35:22.997Z,5.699999809
2022-11-17T04:36:23.402Z,2.900000095
2022-11-17T04:37:23.846Z,1.700000048
2022-11-17T04:38:24.273Z,2.900000095
2022-11-17T04:39:24.676Z,1.899999976
2022-11-17T04:40:25.138Z,2.299999952
2022-11-17T04:41:25.579Z,2.099999905
2022-11-17T04:42:26.559Z,1.399999976
2022-11-17T04:43:26.978Z,1.799999952
2022-11-17T04:44:27.392Z,3.400000095
2022-11-17T04:45:28.500Z,2.400000095
2022-11-17T04:46:28.961Z,2.599999905
2022-11-17T04:47:29.424Z,3.200000048
2022-11-17T04:48:29.800Z,2.5
2022-11-17T04:49:30.297Z,2.099999905
2022-11-17T04:50:30.713Z,2.700000048
2022-11-17T04:51:31.120Z,1.700000048
2022-11-17T04:52:32.543Z,2.700000048
2022-11-17T04:53:33.416Z,2.700000048
2022-11-17T04:54:33.371Z,3.400000095
2022-11-17T04:55:33.821Z,2.5
2022-11-17T04:56:34.246Z,2.5
2022-11-17T04:57:34.731Z,2.900000095
2022-11-17T04:58:35.124Z,2.200000048
2022-11-17T04:59:36.485Z,3.599999905
2022-11-17T05:00:36.916Z,2.700000048
2022-11-17T05:01:37.338Z,2.599999905
2022-11-17T05:02:38.663Z,2.900000095
2022-11-17T05:03:38.896Z,3.299999952
2022-11-17T05:04:39.348Z,2.900000095
2022-11-17T05:05:39.761Z,2.799999952
2022-11-17T05:07:10.739Z,2.599999905
2022-11-17T05:08:11.152Z,2
2022-11-17T05:09:11.585Z,3.599999905
2022-11-17T05:10:12.045Z,2
2022-11-17T05:11:12.509Z,1.700000048
2022-11-17T05:12:12.872Z,2.700000048
2022-11-17T05:13:14.241Z,2.400000095
2022-11-17T05:14:14.621Z,2.200000048
2022-11-17T05:15:15.034Z,1.5
2022-11-17T05:16:15.462Z,1.399999976
2022-11-17T05:17:15.877Z,1.799999952
2022-11-17T05:18:16.480Z,2.799999952
2022-11-17T05:19:16.759Z,1.399999976
2022-11-17T05:20:17.217Z,2.400000095
2022-11-17T05:21:17.706Z,2.299999952
2022-11-17T05:22:18.160Z,2.700000048
2022-11-17T05:23:19.197Z,2.799999952
2022-11-17T05:24:19.615Z,2.299999952
2022-11-17T05:25:20.079Z,2.700000048
2022-11-17T05:26:20.538Z,2.599999905
2022-11-17T05:27:21.019Z,2
2022-11-17T05:28:21.478Z,1.5
2022-11-17T05:29:22.764Z,3.5
2022-11-17T05:30:23.190Z,2.599999905
2022-11-17T05:31:23.638Z,2.799999952
2022-11-17T05:32:24.094Z,3.299999952
2022-11-17T05:33:25.257Z,2.900000095
2022-11-17T05:34:25.689Z,3.700000048
2022-11-17T05:35:26.112Z,6.599999905
2022-11-17T05:36:26.543Z,3.799999952
2022-11-17T05:37:26.937Z,6.199999809
2022-11-17T05:38:28.022Z,4.199999809
2022-11-17T05:39:28.455Z,3.900000095
2022-11-17T05:40:28.878Z,3.700000048
2022-11-17T05:41:29.259Z,3.5
2022-11-17T05:42:29.672Z,3.900000095
2022-11-17T05:43:30.740Z,4.400000095
2022-11-17T05:44:31.148Z,4.400000095
2022-11-17T05:45:31.593Z,2.5
2022-11-17T05:46:32.004Z,2.5
2022-11-17T05:47:32.411Z,2.599999905
2022-11-17T05:48:32.845Z,4.099999905
2022-11-17T05:49:33.272Z,3.200000048
2022-11-17T05:50:33.702Z,3.5
2022-11-17T05:51:34.152Z,3.5
2022-11-17T05:52:34.594Z,3.599999905
2022-11-17T05:53:36.064Z,3.400000095
2022-11-17T05:54:36.162Z,3.5
2022-11-17T05:55:36.654Z,2.599999905
2022-11-17T05:56:37.091Z,3.400000095
2022-11-17T05:57:37.514Z,2.700000048
2022-11-17T05:58:37.980Z,2.900000095
2022-11-17T05:59:39.627Z,4
2022-11-17T06:01:10.306Z,3.099999905
2022-11-17T06:02:10.746Z,3.400000095
2022-11-17T06:03:12.007Z,2.299999952
2022-11-17T06:04:12.512Z,3.299999952
2022-11-17T06:05:18.700Z,2.200000048
2022-11-17T06:06:13.998Z,3.700000048
2022-11-17T06:07:14.548Z,2.099999905
2022-11-17T06:08:14.909Z,2.700000048
2022-11-17T06:09:15.380Z,3.900000095
2022-11-17T06:10:15.773Z,8.899999619
2022-11-17T06:11:16.168Z,3.799999952
2022-11-17T06:12:16.627Z,4.900000095
2022-11-17T06:13:17.999Z,5
2022-11-17T06:14:18.481Z,4.300000191
2022-11-17T06:15:18.892Z,3.400000095
2022-11-17T06:16:19.299Z,4.800000191
2022-11-17T06:17:22.439Z,3.599999905
2022-11-17T06:18:20.191Z,2.799999952
2022-11-17T06:19:20.625Z,4.300000191
2022-11-17T06:20:21.082Z,2.700000048
2022-11-17T06:21:21.522Z,5.099999905
2022-11-17T06:22:21.932Z,3.200000048
2022-11-17T06:23:23.507Z,1.5
2022-11-17T06:24:23.988Z,2.900000095
2022-11-17T06:25:24.468Z,2.200000048
2022-11-17T06:26:24.860Z,2.200000048
2022-11-17T06:27:25.305Z,1.299999952
2022-11-17T06:28:25.673Z,2.400000095
2022-11-17T06:29:26.151Z,2.299999952
2022-11-17T06:30:26.604Z,2.900000095
2022-11-17T06:31:27.040Z,2.099999905
2022-11-17T06:32:27.633Z,2.700000048
2022-11-17T06:33:28.677Z,1.899999976
2022-11-17T06:34:29.678Z,1.399999976
2022-11-17T06:35:30.129Z,1.200000048
2022-11-17T06:36:30.585Z,1.200000048
2022-11-17T06:37:31.186Z,2.200000048
2022-11-17T06:38:31.494Z,1
2022-11-17T06:39:31.924Z,4.5
2022-11-17T06:40:33.009Z,1.700000048
2022-11-17T06:41:33.446Z,1.5
2022-11-17T06:42:33.940Z,2.5
2022-11-17T11:53:29.842Z,2.200000048
2022-11-17T11:54:30.213Z,1.600000024
2022-11-17T11:55:31.292Z,4.099999905
2022-11-17T11:56:31.775Z,2.799999952
2022-11-17T11:57:32.261Z,2.400000095
2022-11-17T11:58:33.503Z,2.5
2022-11-17T11:59:33.932Z,3.200000048
2022-11-17T12:00:34.457Z,2
2022-11-17T12:02:06.567Z,1.600000024
2022-11-17T12:03:07.040Z,1.799999952
2022-11-17T12:04:07.474Z,2.400000095
2022-11-17T12:05:07.877Z,1.200000048
2022-11-17T12:06:09.256Z,2
2022-11-17T12:07:10.051Z,1.100000024
2022-11-17T12:08:10.858Z,1.700000048
2022-11-17T12:09:10.704Z,5.900000095
2022-11-17T12:10:11.139Z,2.599999905
2022-11-17T12:11:11.577Z,1.200000048
2022-11-17T12:12:12.329Z,2.400000095
2022-11-17T12:13:12.632Z,2.299999952
2022-11-17T12:14:13.484Z,1.299999952
2022-11-17T12:15:14.025Z,3.400000095
2022-11-17T12:16:14.538Z,3.5
2022-11-17T12:17:15.063Z,2.900000095
2022-11-17T12:18:15.560Z,1.299999952
2022-11-17T12:19:16.015Z,3.200000048
2022-11-17T12:20:16.447Z,3.5
2022-11-17T12:21:16.862Z,2.200000048
2022-11-17T12:22:17.325Z,5
2022-11-17T12:23:17.847Z,4
2022-11-17T12:24:18.294Z,1.700000048
2022-11-17T12:25:19.550Z,4.199999809
2022-11-17T12:26:19.986Z,4
2022-11-17T12:27:20.392Z,2.5
2022-11-17T12:28:21.000Z,2.900000095
2022-11-17T12:29:21.467Z,3.599999905
2022-11-17T12:30:21.967Z,2.599999905
2022-11-17T12:31:23.524Z,1.899999976
2022-11-17T12:32:24.503Z,4.5
2022-11-17T12:33:24.405Z,3.599999905
2022-11-17T12:34:24.870Z,2.900000095
2022-11-17T12:35:26.029Z,3.099999905
2022-11-17T12:36:30.608Z,4
2022-11-17T12:37:27.530Z,2.700000048
2022-11-17T12:38:28.585Z,4.900000095
2022-11-17T12:39:29.073Z,2.599999905
2022-11-17T12:40:29.524Z,3.700000048
2022-11-17T12:41:29.961Z,3.599999905
2022-11-17T12:42:30.586Z,2.799999952
2022-11-17T12:43:31.050Z,2.200000048
2022-11-17T12:44:32.091Z,2.5
2022-11-17T12:45:38.938Z,3.700000048
2022-11-17T12:46:33.985Z,2.799999952
2022-11-17T12:48:32.476Z,2.799999952
2022-11-17T12:49:05.498Z,2.700000048
2022-11-17T12:50:05.924Z,3.900000095
2022-11-17T12:51:06.915Z,3.200000048
2022-11-17T12:52:07.794Z,3
2022-11-17T12:53:08.257Z,3.299999952
2022-11-17T12:54:08.636Z,1.899999976
2022-11-17T12:55:10.820Z,2.200000048
2022-11-17T12:56:10.764Z,2.400000095
2022-11-17T12:57:11.204Z,3.299999952
2022-11-17T12:58:12.190Z,3
2022-11-17T12:59:12.839Z,2.400000095
2022-11-17T13:00:13.316Z,3.099999905
2022-11-17T13:01:14.602Z,4.599999905
2022-11-17T13:02:14.955Z,4.400000095
2022-11-17T13:03:16.293Z,1.700000048
2022-11-17T13:04:16.835Z,3.700000048
2022-11-17T13:05:17.559Z,2.5
2022-11-17T13:06:34.965Z,4.300000191
2022-11-17T13:07:20.407Z,3.900000095
2022-11-17T13:08:20.788Z,1.600000024
2022-11-17T13:09:21.201Z,2.5
2022-11-17T13:10:22.744Z,3.400000095
2022-11-17T13:11:23.625Z,2.900000095
2022-11-17T13:12:24.067Z,2.400000095
2022-11-17T13:13:25.146Z,2.400000095
2022-11-17T13:14:25.329Z,3
2022-11-17T13:15:25.765Z,2.400000095
2022-11-17T13:16:26.775Z,2.5
2022-11-17T13:17:27.270Z,2.099999905
2022-11-17T13:18:28.120Z,2.099999905
2022-11-17T13:19:28.680Z,3.400000095
2022-11-17T13:20:30.033Z,1.600000024
2022-11-17T13:21:30.522Z,2.900000095
2022-11-17T13:22:31.091Z,1.899999976
2022-11-17T13:23:31.629Z,1.600000024
2022-11-17T13:24:32.126Z,0.800000012
2022-11-17T13:25:32.577Z,2.400000095
2022-11-17T13:27:04.572Z,3.099999905
2022-11-17T13:28:05.640Z,3
2022-11-17T13:29:06.583Z,2.200000048
2022-11-17T13:30:07.132Z,3.200000048
2022-11-17T13:31:07.518Z,2
2022-11-17T13:32:08.042Z,1.899999976
2022-11-17T13:33:09.336Z,3.200000048
2022-11-17T13:34:09.817Z,2.400000095
2022-11-17T13:35:10.351Z,3.400000095
2022-11-17T13:36:11.789Z,3.400000095
2022-11-17T13:37:12.246Z,2.400000095
2022-11-17T13:38:12.755Z,2.799999952
2022-11-17T13:39:13.373Z,2.299999952
2022-11-17T13:40:14.019Z,1.700000048
2022-11-17T13:41:14.593Z,2.299999952
2022-11-17T13:42:15.058Z,1.399999976
2022-11-17T13:43:15.603Z,1.200000048
2022-11-17T13:44:16.395Z,2.099999905
2022-11-17T13:45:16.747Z,2.299999952
2022-11-17T13:46:17.780Z,2.900000095
2022-11-17T13:47:20.708Z,3.799999952
2022-11-17T13:48:18.833Z,1.700000048
2022-11-17T13:49:19.379Z,2.900000095
2022-11-17T13:50:19.900Z,3.099999905
2022-11-17T13:51:20.423Z,2
2022-11-17T13:52:20.870Z,2
2022-11-17T13:53:21.299Z,2
2022-11-17T13:54:21.826Z,2.799999952
2022-11-17T13:55:22.715Z,1.5
2022-11-17T13:56:23.810Z,2.900000095
2022-11-17T13:57:24.743Z,3.200000048
2022-11-17T13:58:26.936Z,1.5
2022-11-17T13:59:25.829Z,2.799999952
2022-11-17T14:00:26.331Z,1.700000048
2022-11-17T14:01:27.949Z,4.800000191
2022-11-17T14:02:28.325Z,2.599999905
2022-11-17T14:03:28.805Z,3.200000048
2022-11-17T14:04:29.321Z,2.5
2022-11-17T14:05:29.845Z,2.400000095
2022-11-17T14:06:31.310Z,4.199999809
2022-11-17T14:07:31.902Z,3.799999952
2022-11-17T14:08:32.232Z,2.5
2022-11-17T14:09:32.801Z,2.599999905
2022-11-17T14:11:03.933Z,3
2022-11-17T14:12:04.429Z,3.5
2022-11-17T14:13:04.906Z,2.599999905
2022-11-17T14:14:05.407Z,3.400000095
2022-11-17T14:15:05.905Z,2.799999952
2022-11-17T14:16:07.058Z,2.700000048
2022-11-17T14:17:07.566Z,3
2022-11-17T14:18:08.069Z,1.600000024
2022-11-17T14:19:08.560Z,2.299999952
2022-11-17T14:20:09.101Z,5.900000095
2022-11-17T14:21:10.287Z,3.599999905
2022-11-17T14:22:13.230Z,1.799999952
2022-11-17T14:23:11.375Z,3.700000048
2022-11-17T14:24:12.152Z,1.5
2022-11-17T14:25:12.282Z,2.5
2022-11-17T14:26:13.534Z,3.799999952
2022-11-17T14:27:14.063Z,1.799999952
2022-11-17T14:28:14.626Z,2.700000048
2022-11-17T14:29:15.096Z,3.599999905
2022-11-17T14:30:15.729Z,3.299999952
2022-11-17T14:31:16.286Z,4.099999905
2022-11-17T14:32:16.810Z,2.799999952
2022-11-17T14:33:18.312Z,1.299999952
2022-11-17T14:34:18.824Z,2.299999952
2022-11-17T14:35:19.485Z,2.900000095
2022-11-17T14:36:20.571Z,2.700000048
2022-11-17T14:37:21.080Z,2
2022-11-17T14:38:21.687Z,2.5
2022-11-17T14:39:22.015Z,3.400000095
2022-11-17T14:40:22.794Z,4.099999905
2022-11-17T14:41:23.307Z,4.199999809
2022-11-17T14:42:23.929Z,2.5
2022-11-17T14:43:25.326Z,1.600000024
2022-11-17T14:44:25.753Z,2.599999905
2022-11-17T14:45:26.236Z,1.799999952
2022-11-17T14:46:27.569Z,1.399999976
2022-11-17T14:47:28.062Z,1.399999976
2022-11-17T14:48:28.596Z,4.199999809
2022-11-17T14:49:29.018Z,2.900000095
2022-11-17T14:50:29.484Z,3.700000048
2022-11-17T14:51:30.026Z,4.199999809
2022-11-17T14:52:30.491Z,2.099999905
2022-11-17T14:53:30.965Z,3.200000048
2022-11-17T14:54:31.546Z,2.400000095
2022-11-17T14:55:31.989Z,1.600000024
2022-11-17T14:56:33.071Z,3.599999905
2022-11-17T14:58:03.828Z,1.700000048
2022-11-17T14:59:04.322Z,3
2022-11-17T15:00:04.786Z,1.799999952
2022-11-17T15:01:05.269Z,4.5
2022-11-17T15:02:06.605Z,2.299999952
2022-11-17T15:03:07.230Z,2.700000048
2022-11-17T15:04:34.390Z,3.700000048
2022-11-17T15:05:08.115Z,3.900000095
2022-11-17T15:06:09.537Z,3.099999905
2022-11-17T15:07:10.201Z,2.200000048
2022-11-17T15:08:10.672Z,1.600000024
2022-11-17T15:09:11.187Z,1.899999976
2022-11-17T15:10:11.637Z,2.700000048
2022-11-17T15:11:12.083Z,2.099999905
2022-11-17T15:12:12.660Z,5
2022-11-17T15:13:13.111Z,2.799999952
2022-11-17T15:14:14.278Z,3.799999952
2022-11-17T15:15:14.158Z,3.900000095
2022-11-17T15:16:14.644Z,3.299999952
2022-11-17T15:17:15.744Z,4.199999809
2022-11-17T15:18:16.265Z,2
2022-11-17T15:19:16.803Z,2.900000095
2022-11-17T15:20:17.309Z,4.699999809
2022-11-17T15:21:17.764Z,2.599999905
2022-11-17T15:22:18.311Z,1.100000024
2022-11-17T15:23:18.931Z,2.5
2022-11-17T15:24:19.499Z,3.299999952
2022-11-17T15:25:20.027Z,3.299999952
2022-11-17T15:27:31.270Z,3.200000048
2022-11-17T15:28:31.754Z,2.299999952
2022-11-17T15:30:03.551Z,2.599999905
2022-11-17T15:31:04.603Z,5.599999905
2022-11-17T15:32:05.052Z,3.599999905
2022-11-17T15:33:06.048Z,4.199999809
2022-11-17T15:34:06.526Z,3.5
2022-11-17T15:35:07.195Z,4.400000095
2022-11-17T15:36:07.572Z,5.300000191
2022-11-17T15:37:08.829Z,2.5
2022-11-17T15:38:09.317Z,2.599999905
2022-11-17T15:39:09.794Z,5.699999809
2022-11-17T15:40:12.115Z,2.900000095
2022-11-17T15:41:11.102Z,2.099999905
2022-11-17T15:42:11.681Z,2.799999952
2022-11-17T15:43:12.106Z,2.299999952
2022-11-17T15:44:12.568Z,2.599999905
2022-11-17T15:45:12.982Z,2
2022-11-17T15:46:14.277Z,3.700000048
2022-11-17T15:47:15.287Z,2.799999952
2022-11-17T15:48:18.756Z,3.599999905
2022-11-17T15:49:16.529Z,2.900000095
2022-11-17T15:50:16.653Z,4.300000191
2022-11-17T15:51:17.115Z,7
2022-11-17T15:52:30.089Z,3.799999952
2022-11-17T15:53:18.467Z,6.5
2022-11-17T15:54:21.012Z,6.199999809
2022-11-17T15:55:19.336Z,6.5
2022-11-17T15:56:19.776Z,8.300000191
2022-11-17T15:57:20.805Z,3.599999905
2022-11-17T15:58:21.249Z,4.699999809
2022-11-17T15:59:21.717Z,5.199999809
2022-11-17T16:00:22.167Z,4.099999905
2022-11-17T16:01:22.783Z,3.099999905
2022-11-17T16:02:23.193Z,4.099999905
2022-11-17T16:03:24.535Z,4.699999809
2022-11-17T16:04:25.047Z,5
2022-11-17T16:05:25.533Z,6.599999905
2022-11-17T16:06:26.608Z,4.400000095
2022-11-17T16:07:27.614Z,4.699999809
2022-11-17T16:08:28.152Z,6.099999905
2022-11-17T16:09:28.701Z,4.400000095
2022-11-17T16:10:29.311Z,2.299999952
2022-11-17T16:11:29.930Z,4.099999905
2022-11-17T16:12:30.216Z,4
2022-11-17T16:13:30.619Z,3.099999905
2022-11-17T16:14:31.207Z,3.799999952
2022-11-17T16:16:02.418Z,7.5
2022-11-17T16:17:02.992Z,3.5
2022-11-17T16:18:03.517Z,5.599999905
2022-11-17T16:19:04.037Z,3.799999952
2022-11-17T16:20:04.635Z,3
2022-11-17T16:21:05.267Z,2.200000048
2022-11-17T16:22:05.432Z,3.400000095
2022-11-17T16:23:05.846Z,3.200000048
2022-11-17T16:24:06.252Z,12.69999981
2022-11-17T16:25:06.857Z,17.60000038
2022-11-17T16:26:07.393Z,26.70000076
2022-11-17T16:27:08.128Z,10.60000038
2022-11-17T16:28:08.522Z,7.099999905
2022-11-17T16:29:09.540Z,5.699999809
2022-11-17T16:30:09.968Z,11.19999981
2022-11-17T16:31:10.548Z,6.599999905
2022-11-17T16:32:11.057Z,7.400000095
2022-11-17T16:33:11.597Z,14.30000019
2022-11-17T16:34:12.147Z,14.19999981
2022-11-17T16:35:12.592Z,9.699999809
2022-11-17T16:36:13.898Z,6.800000191
2022-11-17T16:37:15.175Z,6.300000191
2022-11-17T16:38:16.656Z,5.400000095
2022-11-17T16:39:17.661Z,7.400000095
2022-11-17T16:40:17.551Z,5.900000095
2022-11-17T16:41:18.008Z,6.300000191
2022-11-17T16:42:19.039Z,6.900000095
2022-11-17T16:43:19.472Z,5.800000191